Time;durP1;ratioP1;P1;durP2;ratioP2;P2;SDS_P1;SDS_P2;PMS_P1;PMS_P2;Temp;Humidity;BMP_temperature;BMP_pressure;BME280_temperature;BME280_humidity;BME280_pressure;Samples;Min_cycle;Max_cycle;Signal;HPM_P1;HPM_P2
2023/02/05 00:01:06;;;;;;;13.10;11.83;;;-0.20;99.90;;;0.41;100.00;99951.06;5223028;28;20209;-85
2023/02/05 00:03:39;;;;;;;12.27;11.17;;;-0.20;99.90;;;0.43;100.00;99945.53;5222254;28;20226;-84
2023/02/05 00:06:12;;;;;;;11.83;10.50;;;-0.20;99.90;;;0.50;100.00;99949.72;5216293;28;20220;-86
2023/02/05 00:08:45;;;;;;;12.90;11.57;;;-0.10;99.90;;;0.51;100.00;99943.09;5219295;28;20197;-85
2023/02/05 00:11:20;;;;;;;23.10;12.17;;;-0.10;99.90;;;0.55;100.00;99945.31;5222908;28;20214;-85
2023/02/05 00:13:53;;;;;;;15.43;11.53;;;-0.10;99.90;;;0.53;100.00;99945.09;5224505;28;20304;-85
2023/02/05 00:16:26;;;;;;;16.73;15.23;;;-0.10;99.90;;;0.53;100.00;99942.59;5224679;28;20294;-84
2023/02/05 00:18:59;;;;;;;11.90;10.70;;;-0.20;99.90;;;0.48;100.00;99937.66;5218041;28;20213;-85
2023/02/05 00:21:32;;;;;;;10.90;9.90;;;-0.20;99.90;;;0.45;100.00;99939.06;5219594;28;20224;-84
2023/02/05 00:24:06;;;;;;;11.87;10.77;;;-0.20;99.90;;;0.48;100.00;99932.63;5223159;28;20231;-85
2023/02/05 00:26:41;;;;;;;11.67;10.63;;;-0.20;99.90;;;0.54;100.00;99930.91;5216935;28;20289;-85
2023/02/05 00:29:14;;;;;;;11.13;10.13;;;-0.10;99.90;;;0.54;100.00;99923.34;5220446;28;20210;-86
2023/02/05 00:31:48;;;;;;;10.53;9.63;;;-0.10;99.90;;;0.59;100.00;99922.34;5219069;28;20251;-84
2023/02/05 00:34:21;;;;;;;12.00;10.67;;;-0.10;99.90;;;0.61;100.00;99920.94;5228351;28;20197;-85
2023/02/05 00:36:54;;;;;;;12.30;11.10;;;-0.10;99.90;;;0.61;100.00;99911.78;5217404;28;20197;-86
2023/02/05 00:39:27;;;;;;;11.47;10.47;;;0.00;99.90;;;0.53;100.00;99922.47;5215755;28;20197;-86
2023/02/05 00:42:02;;;;;;;11.53;10.47;;;-0.10;99.90;;;0.52;100.00;99905.56;5219013;28;20233;-84
2023/02/05 00:44:35;;;;;;;11.70;10.57;;;-0.10;99.90;;;0.53;100.00;99899.81;5223911;28;20252;-85
2023/02/05 00:47:08;;;;;;;11.60;10.50;;;-0.10;99.90;;;0.49;100.00;99906.75;5218834;28;20299;-85
2023/02/05 00:49:41;;;;;;;10.80;9.83;;;-0.20;99.90;;;0.40;100.00;99914.94;5223003;28;20191;-86
2023/02/05 00:52:14;;;;;;;12.07;10.97;;;-0.20;99.90;;;0.40;100.00;99909.94;5217705;28;20232;-85
2023/02/05 00:54:48;;;;;;;11.27;10.17;;;-0.30;99.90;;;0.44;100.00;99907.09;5223191;28;20196;-85
2023/02/05 00:57:23;;;;;;;10.67;9.67;;;-0.20;99.90;;;0.43;100.00;99910.31;5226047;28;20206;-85
2023/02/05 00:59:56;;;;;;;11.07;9.97;;;-0.20;99.90;;;0.41;100.00;99921.78;5224719;28;20677;-86
2023/02/05 01:02:29;;;;;;;9.03;8.23;;;-0.20;99.90;;;0.18;100.00;99918.81;5229669;28;20274;-86
2023/02/05 01:05:03;;;;;;;9.00;8.13;;;-0.40;99.90;;;0.17;100.00;99919.53;5230007;28;20888;-86
2023/02/05 01:07:36;;;;;;;8.50;7.90;;;-0.50;99.90;;;0.14;100.00;99913.16;5226888;28;20202;-85
2023/02/05 01:10:10;;;;;;;9.63;8.80;;;-0.50;99.90;;;0.05;100.00;99912.88;5222808;28;20752;-84
2023/02/05 01:12:44;;;;;;;10.10;9.20;;;-0.60;99.90;;;-0.06;100.00;99910.56;5226720;28;20222;-86
2023/02/05 01:15:18;;;;;;;9.97;9.07;;;-0.60;99.90;;;-0.06;100.00;99903.94;5227159;28;20289;-86
2023/02/05 01:17:51;;;;;;;10.80;9.90;;;-0.60;99.90;;;-0.11;100.00;99909.97;5221266;28;20228;-86
2023/02/05 01:20:25;;;;;;;10.13;9.23;;;-0.60;99.90;;;-0.07;100.00;99904.63;5218865;28;20202;-86
2023/02/05 01:22:58;;;;;;;10.33;9.43;;;-0.60;99.90;;;-0.11;100.00;99904.94;5222302;28;20718;-85
2023/02/05 01:25:31;;;;;;;10.77;9.70;;;-0.60;99.90;;;-0.05;100.00;99910.78;5224605;28;20209;-86
2023/02/05 01:28:06;;;;;;;10.33;9.53;;;-0.60;99.90;;;-0.02;100.00;99911.16;5229807;28;20220;-85
2023/02/05 01:30:40;;;;;;;10.30;9.40;;;-0.50;99.90;;;-0.23;100.00;99908.34;5226388;28;20194;-85
2023/02/05 01:33:14;;;;;;;10.10;9.27;;;-0.70;99.90;;;-0.19;100.00;99910.56;5225303;28;20246;-85
2023/02/05 01:35:47;;;;;;;10.27;9.33;;;-0.70;99.90;;;-0.22;100.00;99902.63;5229003;28;20209;-85
2023/02/05 01:38:20;;;;;;;10.30;9.50;;;-0.70;99.90;;;-0.24;100.00;99896.50;5220664;28;20319;-85
2023/02/05 01:40:53;;;;;;;8.70;7.90;;;-0.80;99.90;;;-0.19;100.00;99899.63;5229438;28;20736;-86
2023/02/05 01:43:27;;;;;;;10.10;9.30;;;-0.70;99.90;;;-0.10;100.00;99890.78;5222397;28;20248;-86
2023/02/05 01:46:24;;;;;;;10.57;9.57;;;-0.70;99.90;;;-0.10;100.00;99880.72;5223635;28;20243;-86
2023/02/05 01:48:58;;;;;;;10.30;9.40;;;-0.60;99.90;;;-0.26;100.00;99882.81;5228495;28;20539;-86
2023/02/05 01:51:35;;;;;;;10.57;9.67;;;-0.70;99.90;;;-0.22;100.00;99880.03;5227040;28;20295;-86
2023/02/05 01:54:09;;;;;;;10.90;9.90;;;-0.70;99.90;;;-0.28;100.00;99871.69;5228672;28;20319;-85
2023/02/05 01:56:46;;;;;;;10.60;9.60;;;-0.70;99.90;;;-0.24;100.00;99883.94;5228979;28;20316;-85
2023/02/05 01:59:26;;;;;;;10.27;9.37;;;-0.70;99.90;;;-0.08;100.00;99885.25;5228426;28;20201;-84
2023/02/05 02:02:00;;;;;;;10.37;9.37;;;-0.60;99.90;;;-0.08;100.00;99880.22;5224853;28;20212;-85
2023/02/05 02:04:39;;;;;;;10.93;10.03;;;-0.60;99.90;;;-0.08;100.00;99875.19;5224991;28;20211;-85
2023/02/05 02:07:17;;;;;;;10.43;9.53;;;-0.60;99.90;;;0.05;100.00;99875.16;5224466;28;20198;-85
2023/02/05 02:09:53;;;;;;;9.80;8.90;;;-0.60;99.90;;;0.09;100.00;99858.91;5226367;28;20189;-85
2023/02/05 02:12:32;;;;;;;10.43;9.37;;;-0.50;99.90;;;0.09;100.00;99866.44;5229049;28;20310;-83
2023/02/05 02:15:14;;;;;;;10.50;9.23;;;-0.50;99.90;;;0.07;100.00;99868.72;5219649;28;20220;-84
2023/02/05 02:17:53;;;;;;;10.30;9.40;;;-0.50;99.90;;;-0.13;100.00;99858.59;5223664;28;20209;-85
2023/02/05 02:20:32;;;;;;;10.37;9.47;;;-0.70;99.90;;;0.01;100.00;99857.00;5224148;28;20197;-84
2023/02/05 02:23:22;;;;;;;9.37;8.57;;;-0.60;99.90;;;0.01;100.00;99850.34;5226281;28;20644;-85
2023/02/05 02:26:32;;;;;;;10.93;10.03;;;-0.60;99.90;;;0.04;100.00;99854.88;5226197;28;20286;-84
2023/02/05 02:29:09;;;;;;;10.10;9.20;;;-0.50;99.90;;;0.05;100.00;99847.50;5227105;28;20275;-86
2023/02/05 02:31:48;;;;;;;9.40;8.60;;;-0.60;99.90;;;0.01;100.00;99839.41;5224377;28;20212;-86
2023/02/05 02:34:30;;;;;;;9.33;8.60;;;-0.50;99.90;;;-0.05;100.00;99837.88;5216777;28;20685;-86
2023/02/05 02:37:09;;;;;;;8.63;7.93;;;-0.70;99.90;;;-0.08;100.00;99834.09;5228198;28;20233;-85
2023/02/05 02:39:51;;;;;;;8.57;7.93;;;-0.70;99.90;;;-0.21;100.00;99826.53;5226409;28;20197;-86
2023/02/05 02:42:29;;;;;;;9.40;8.50;;;-0.80;99.90;;;-0.26;100.00;99830.06;5222336;28;20225;-85
2023/02/05 02:45:09;;;;;;;9.57;8.80;;;-0.80;99.90;;;-0.26;100.00;99832.56;5227401;28;20658;-86
2023/02/05 02:47:48;;;;;;;9.80;8.87;;;-0.80;99.90;;;-0.25;100.00;99831.88;5225196;28;20205;-84
2023/02/05 02:50:31;;;;;;;10.90;9.90;;;-0.80;99.90;;;-0.13;100.00;99825.94;5228373;28;20703;-85
2023/02/05 02:53:10;;;;;;;11.40;10.20;;;-0.70;99.90;;;-0.12;100.00;99821.81;5228060;28;20592;-85
2023/02/05 02:55:45;;;;;;;11.03;10.03;;;-0.70;99.90;;;-0.23;100.00;99830.47;5220247;28;20201;-85
2023/02/05 02:58:23;;;;;;;11.43;10.20;;;-0.80;99.90;;;-0.28;100.00;99832.38;5223712;28;20657;-85
2023/02/05 03:00:59;;;;;;;11.37;10.43;;;-0.80;99.90;;;-0.19;100.00;99832.69;5221556;28;20580;-85
2023/02/05 03:03:37;;;;;;;10.53;9.57;;;-0.70;99.90;;;-0.09;100.00;99830.63;5218492;28;20237;-86
2023/02/05 03:06:12;;;;;;;11.47;10.33;;;-0.60;99.90;;;-0.06;100.00;99817.56;5221634;28;20632;-85
2023/02/05 03:08:52;;;;;;;10.70;9.80;;;-0.60;99.90;;;-0.24;100.00;99817.00;5226108;28;20204;-84
2023/02/05 03:11:26;;;;;;;11.37;10.27;;;-0.70;99.90;;;-0.33;100.00;99819.94;5227652;28;20226;-85
2023/02/05 03:14:00;;;;;;;11.10;10.07;;;-0.80;99.90;;;-0.19;100.00;99811.69;5226904;28;20244;-85
2023/02/05 03:16:34;;;;;;;11.87;10.67;;;-0.70;99.90;;;-0.12;100.00;99817.69;5217997;28;20293;-84
2023/02/05 03:19:08;;;;;;;11.50;10.30;;;-0.60;99.90;;;-0.16;100.00;99820.50;5226938;28;20198;-85
2023/02/05 03:21:46;;;;;;;13.00;11.57;;;-0.60;99.90;;;-0.21;100.00;99816.50;5223283;28;20309;-84
2023/02/05 03:24:20;;;;;;;11.87;10.67;;;-0.70;99.90;;;-0.12;100.00;99815.16;5212736;28;20239;-85
2023/02/05 03:26:53;;;;;;;11.60;10.50;;;-0.60;99.90;;;-0.10;100.00;99816.28;5226962;28;20197;-85
2023/02/05 03:29:31;;;;;;;13.37;12.17;;;-0.60;99.90;;;-0.17;100.00;99810.25;5220315;28;20206;-85
2023/02/05 03:32:23;;;;;;;13.43;11.80;;;-0.60;99.90;;;-0.10;100.00;99808.75;5222300;28;20254;-85
2023/02/05 03:35:13;;;;;;;12.87;11.60;;;-0.60;99.90;;;0.08;100.00;99805.19;5227622;28;20213;-85
2023/02/05 03:38:06;;;;;;;13.37;11.93;;;-0.50;99.90;;;0.07;100.00;99810.03;5225756;28;20226;-85
2023/02/05 03:40:48;;;;;;;12.53;10.60;;;-0.50;99.90;;;-0.06;100.00;99812.53;5223304;28;20284;-85
2023/02/05 03:43:33;;;;;;;12.63;11.40;;;-0.50;99.90;;;0.03;100.00;99810.31;5225411;28;20314;-85
2023/02/05 03:46:15;;;;;;;11.90;10.73;;;-0.50;99.90;;;0.11;100.00;99805.56;5221141;28;20207;-86
2023/02/05 03:49:04;;;;;;;12.13;10.83;;;-0.40;99.90;;;0.22;100.00;99801.91;5224657;28;20212;-85
2023/02/05 03:51:46;;;;;;;12.47;11.30;;;-0.30;99.90;;;0.30;100.00;99796.28;5221723;28;20209;-86
2023/02/05 03:54:28;;;;;;;12.47;11.17;;;-0.30;99.90;;;0.36;100.00;99802.06;5218990;28;20296;-86
2023/02/05 03:57:08;;;;;;;11.37;10.23;;;-0.30;99.90;;;0.37;100.00;99797.94;5211955;28;20196;-86
2023/02/05 03:59:42;;;;;;;12.20;11.10;;;-0.20;99.90;;;0.43;100.00;99793.72;5222077;28;20205;-85
2023/02/05 04:02:16;;;;;;;10.57;9.57;;;-0.20;99.90;;;0.39;100.00;99789.88;5217380;28;20311;-84
2023/02/05 04:04:50;;;;;;;12.03;10.93;;;-0.20;99.90;;;0.30;100.00;99787.81;5221739;28;20229;-85
2023/02/05 04:07:23;;;;;;;10.90;9.90;;;-0.30;99.90;;;0.38;100.00;99795.63;5221887;28;20193;-85
2023/02/05 04:09:57;;;;;;;10.37;9.03;;;-0.20;99.90;;;0.41;100.00;99793.50;5221794;28;20224;-85
2023/02/05 04:12:30;;;;;;;11.03;10.00;;;-0.20;99.90;;;0.45;100.00;99793.19;5223851;28;20226;-86
2023/02/05 04:15:03;;;;;;;10.03;9.20;;;-0.10;99.90;;;0.35;100.00;99782.69;5217784;28;20217;-86
2023/02/05 04:17:37;;;;;;;11.13;9.67;;;-0.20;99.90;;;0.39;100.00;99781.44;5219264;28;20613;-85
2023/02/05 04:20:12;;;;;;;9.87;9.07;;;-0.20;99.90;;;0.34;100.00;99772.41;5222511;28;20208;-85
2023/02/05 04:22:45;;;;;;;9.63;8.80;;;-0.20;99.90;;;0.33;100.00;99776.53;5219595;28;20227;-85
2023/02/05 04:25:19;;;;;;;9.03;8.30;;;-0.30;99.90;;;0.24;100.00;99772.88;5216762;28;20229;-86
2023/02/05 04:27:53;;;;;;;9.47;8.63;;;-0.30;99.90;;;0.25;100.00;99771.25;5226084;28;20228;-86
2023/02/05 04:30:27;;;;;;;9.33;8.47;;;-0.30;99.90;;;0.29;100.00;99773.47;5214415;28;20199;-86
2023/02/05 04:33:00;;;;;;;9.73;8.73;;;-0.30;99.90;;;0.34;100.00;99777.44;5219828;28;20278;-85
2023/02/05 04:35:34;;;;;;;10.23;9.33;;;-0.20;99.90;;;0.43;100.00;99779.53;5225605;28;20229;-85
2023/02/05 04:38:08;;;;;;;10.00;9.10;;;-0.10;99.90;;;0.32;100.00;99779.78;5226639;28;20693;-85
2023/02/05 04:40:41;;;;;;;10.30;9.30;;;-0.30;99.90;;;0.34;100.00;99764.88;5218775;28;20215;-85
2023/02/05 04:43:14;;;;;;;10.27;9.27;;;-0.30;99.90;;;0.37;100.00;99767.75;5216926;28;20244;-85
2023/02/05 04:45:48;;;;;;;10.13;9.13;;;-0.20;99.90;;;0.26;100.00;99773.97;5217745;28;20656;-83
2023/02/05 04:48:21;;;;;;;9.97;8.93;;;-0.20;99.90;;;0.30;100.00;99783.69;5226422;28;20241;-85
2023/02/05 04:50:55;;;;;;;9.90;9.10;;;-0.20;99.90;;;0.38;100.00;99790.59;5222410;28;20210;-85
2023/02/05 04:53:28;;;;;;;10.77;9.83;;;-0.10;99.90;;;0.60;100.00;99785.75;5224579;28;20580;-85
2023/02/05 04:56:07;;;;;;;11.20;10.10;;;-0.10;99.90;;;0.43;100.00;99786.19;5219491;28;20204;-86
2023/02/05 04:58:40;;;;;;;12.00;10.93;;;-0.10;99.90;;;0.29;100.00;99781.91;5220592;28;20242;-85
2023/02/05 05:01:15;;;;;;;11.10;10.10;;;-0.20;99.90;;;0.23;100.00;99778.59;5225266;28;20571;-84
2023/02/05 05:03:50;;;;;;;12.03;10.93;;;-0.30;99.90;;;0.30;100.00;99776.16;5219468;28;20299;-85
2023/02/05 05:06:24;;;;;;;12.60;11.40;;;-0.20;99.90;;;0.42;100.00;99774.28;5220645;28;20205;-85
2023/02/05 05:08:57;;;;;;;12.53;10.80;;;-0.10;99.90;;;0.56;100.00;99768.50;5225203;28;20294;-85
2023/02/05 05:11:32;;;;;;;12.80;11.47;;;-0.10;99.90;;;0.42;100.00;99777.69;5204746;28;20200;-86
2023/02/05 05:14:05;;;;;;;12.30;11.10;;;-0.20;99.90;;;0.37;100.00;99776.25;5223643;28;20216;-85
2023/02/05 05:16:38;;;;;;;11.70;10.70;;;-0.20;99.90;;;0.26;100.00;99776.47;5220947;28;20201;-86
2023/02/05 05:19:11;;;;;;;12.40;11.30;;;-0.20;99.90;;;0.22;100.00;99770.13;5223364;28;20210;-84
2023/02/05 05:21:46;;;;;;;12.87;11.60;;;-0.30;99.90;;;0.29;100.00;99770.94;5215872;28;20273;-86
2023/02/05 05:24:19;;;;;;;12.03;10.93;;;-0.20;99.90;;;0.32;100.00;99778.88;5224242;28;20225;-85
2023/02/05 05:26:52;;;;;;;12.10;10.90;;;-0.20;99.90;;;0.30;100.00;99782.81;5226403;28;20414;-85
2023/02/05 05:29:25;;;;;;;11.23;10.13;;;-0.20;99.90;;;0.26;100.00;99796.59;5223286;28;20225;-86
2023/02/05 05:31:58;;;;;;;12.57;11.37;;;-0.30;99.90;;;0.25;100.00;99787.22;5221252;28;20224;-85
2023/02/05 05:34:32;;;;;;;12.17;11.07;;;-0.30;99.90;;;0.24;100.00;99787.94;5222288;28;20226;-86
2023/02/05 05:37:06;;;;;;;12.47;11.27;;;-0.30;99.90;;;0.33;100.00;99786.59;5221834;28;20284;-86
2023/02/05 05:45:21;;;;;;;11.23;10.13;;;-0.10;99.90;;;0.45;100.00;99783.13;5225844;28;20236;-85
2023/02/05 05:47:55;;;;;;;10.87;9.87;;;-0.10;99.90;;;0.47;100.00;99789.97;5216129;28;20198;-86
2023/02/05 05:50:28;;;;;;;10.93;10.03;;;-0.10;99.90;;;0.55;100.00;99789.34;5225962;28;20201;-85
2023/02/05 05:53:02;;;;;;;11.00;9.97;;;0.00;99.90;;;0.64;100.00;99785.47;5225467;28;20224;-86
2023/02/05 05:55:35;;;;;;;11.63;10.50;;;0.10;99.90;;;0.50;100.00;99786.22;5227148;28;20199;-86
2023/02/05 05:58:09;;;;;;;10.27;9.37;;;0.00;99.90;;;0.62;100.00;99786.88;5229269;28;20274;-85
2023/02/05 06:00:43;;;;;;;11.20;10.20;;;0.00;99.90;;;0.60;100.00;99779.16;5226752;28;20658;-86
2023/02/05 06:03:16;;;;;;;10.50;9.50;;;0.00;99.90;;;0.60;100.00;99776.63;5224337;28;20219;-86
2023/02/05 06:05:49;;;;;;;9.70;8.73;;;0.00;99.90;;;0.53;100.00;99775.66;5227600;28;20216;-86
2023/02/05 06:08:24;;;;;;;9.50;8.80;;;-0.10;99.90;;;0.55;100.00;99770.13;5219529;28;20206;-87
2023/02/05 06:10:57;;;;;;;10.40;9.37;;;-0.10;99.90;;;0.44;100.00;99766.22;5221468;28;20889;-86
2023/02/05 06:13:30;;;;;;;10.83;9.83;;;-0.10;99.90;;;0.53;100.00;99761.47;5225666;28;20254;-86
2023/02/05 06:16:04;;;;;;;11.13;10.13;;;0.00;99.90;;;0.57;100.00;99755.19;5226815;28;20194;-86
2023/02/05 06:18:37;;;;;;;10.33;9.53;;;0.00;99.90;;;0.63;100.00;99755.97;5229442;28;20670;-86
2023/02/05 06:21:10;;;;;;;11.00;10.00;;;0.00;99.90;;;0.53;100.00;99763.06;5224184;28;20211;-86
2023/02/05 06:23:44;;;;;;;10.40;9.50;;;-0.10;99.90;;;0.70;100.00;99765.22;5229210;28;20225;-86
2023/02/05 06:26:18;;;;;;;10.80;9.90;;;0.00;99.90;;;0.63;100.00;99768.53;5226710;28;20219;-85
2023/02/05 06:28:51;;;;;;;10.30;9.40;;;0.10;99.90;;;0.67;100.00;99771.66;5228388;28;20581;-86
2023/02/05 06:31:24;;;;;;;10.70;9.80;;;0.10;99.90;;;0.80;100.00;99769.06;5223062;28;20200;-86
2023/02/05 06:33:57;;;;;;;12.00;10.90;;;0.10;99.90;;;0.70;100.00;99756.03;5223368;28;20298;-85
2023/02/05 06:36:30;;;;;;;12.33;11.23;;;0.10;99.90;;;0.55;100.00;99770.13;5220471;28;20204;-85
2023/02/05 06:39:05;;;;;;;11.87;10.73;;;0.00;99.90;;;0.57;100.00;99765.25;5224798;28;20767;-85
2023/02/05 06:41:38;;;;;;;10.57;9.67;;;0.10;99.90;;;0.66;100.00;99753.84;5226350;28;20196;-84
2023/02/05 06:44:11;;;;;;;10.40;9.40;;;0.00;99.90;;;0.62;100.00;99761.72;5222594;28;20335;-85
2023/02/05 06:46:44;;;;;;;9.63;8.83;;;0.00;99.90;;;0.70;100.00;99756.03;5223726;28;20244;-85
2023/02/05 06:49:17;;;;;;;11.07;10.17;;;0.10;99.90;;;0.81;100.00;99750.75;5227481;28;20196;-85
2023/02/05 06:51:50;;;;;;;10.90;10.00;;;0.20;99.90;;;0.88;100.00;99745.75;5221635;28;20199;-85
2023/02/05 06:54:25;;;;;;;10.63;9.73;;;0.20;99.90;;;0.88;100.00;99755.81;5220094;28;20213;-85
2023/02/05 06:56:58;;;;;;;10.90;10.00;;;0.20;99.90;;;0.87;100.00;99771.63;5218849;28;20232;-85
2023/02/05 06:59:32;;;;;;;10.13;9.23;;;0.20;99.90;;;0.92;100.00;99772.22;5224939;28;20190;-85
2023/02/05 07:02:05;;;;;;;10.73;9.73;;;0.30;99.90;;;1.06;100.00;99768.88;5225467;28;20220;-85
2023/02/05 07:04:38;;;;;;;10.73;9.73;;;0.40;99.90;;;0.94;100.00;99772.41;5225119;28;20212;-86
2023/02/05 07:07:12;;;;;;;9.27;8.37;;;0.40;99.90;;;0.98;100.00;99780.53;5226183;28;20216;-85
2023/02/05 07:09:47;;;;;;;10.17;9.30;;;0.30;99.90;;;0.93;100.00;99780.66;5227404;28;20609;-85
2023/02/05 07:12:21;;;;;;;9.67;8.77;;;0.30;99.90;;;0.99;100.00;99776.41;5228264;28;20386;-85
2023/02/05 07:14:54;;;;;;;9.90;9.00;;;0.30;99.90;;;1.08;100.00;99772.50;5226653;28;20252;-85
2023/02/05 07:17:27;;;;;;;10.77;9.77;;;0.40;99.90;;;1.15;100.00;99777.59;5227551;28;20598;-86
2023/02/05 07:20:00;;;;;;;10.63;9.53;;;0.50;99.90;;;1.13;100.00;99782.44;5222894;28;20204;-85
2023/02/05 07:22:33;;;;;;;9.67;8.87;;;0.50;99.90;;;1.14;100.00;99790.88;5221589;28;20270;-85
2023/02/05 07:25:08;;;;;;;10.50;9.60;;;0.50;99.90;;;1.08;100.00;99783.47;5225572;28;20304;-85
2023/02/05 07:27:41;;;;;;;9.83;9.03;;;0.40;99.90;;;1.09;100.00;99776.84;5227058;28;20205;-85
2023/02/05 07:30:15;;;;;;;10.23;9.23;;;0.40;99.90;;;1.17;100.00;99787.84;5218322;28;20206;-85
2023/02/05 07:32:48;;;;;;;11.00;10.20;;;0.50;99.90;;;1.19;100.00;99787.31;5224842;28;20225;-86
2023/02/05 07:35:21;;;;;;;11.43;10.33;;;0.50;99.90;;;1.27;100.00;99785.78;5222959;28;20629;-85
2023/02/05 07:37:55;;;;;;;10.47;9.67;;;0.60;99.90;;;1.35;100.00;99773.41;5221948;28;20284;-85
2023/02/05 07:40:29;;;;;;;10.50;9.60;;;0.70;99.90;;;1.35;100.00;99775.94;5216388;28;20213;-85
2023/02/05 07:43:02;;;;;;;10.10;9.20;;;0.60;99.90;;;1.38;100.00;99772.00;5229063;28;20216;-85
2023/02/05 07:45:35;;;;;;;10.17;9.37;;;0.70;99.90;;;1.33;100.00;99762.22;5227417;28;20289;-84
2023/02/05 07:48:09;;;;;;;9.97;9.17;;;0.70;99.90;;;1.13;100.00;99767.31;5220500;28;20206;-85
2023/02/05 07:50:44;;;;;;;10.20;9.30;;;0.60;99.90;;;1.17;100.00;99755.09;5225207;28;20881;-85
2023/02/05 07:53:17;;;;;;;10.57;9.63;;;0.50;99.90;;;1.12;100.00;99749.53;5227012;28;20228;-85
2023/02/05 07:55:52;;;;;;;13.87;12.67;;;0.50;99.90;;;1.16;100.00;99744.13;5220600;28;20295;-85
2023/02/05 07:58:25;;;;;;;11.20;10.30;;;0.50;99.90;;;1.33;100.00;99752.16;5222460;28;20259;-85
2023/02/05 08:01:01;;;;;;;10.70;9.70;;;0.60;99.90;;;1.36;100.00;99756.69;5218404;28;20217;-84
2023/02/05 08:03:35;;;;;;;11.20;10.27;;;0.70;99.90;;;1.42;100.00;99752.38;5226090;28;20220;-85
2023/02/05 08:06:12;;;;;;;10.43;9.63;;;0.80;99.90;;;1.49;100.00;99754.06;5221564;28;20231;-85
2023/02/05 08:08:45;;;;;;;10.60;9.60;;;0.80;99.90;;;1.56;100.00;99757.50;5219516;28;20243;-85
2023/02/05 08:11:20;;;;;;;10.50;9.60;;;0.90;99.90;;;1.46;100.00;99754.59;5224193;28;20858;-84
2023/02/05 08:13:53;;;;;;;10.00;9.20;;;0.80;99.90;;;1.55;100.00;99750.66;5222046;28;20216;-85
2023/02/05 08:16:26;;;;;;;10.60;9.50;;;0.90;99.90;;;1.66;100.00;99751.97;5221491;28;20211;-85
2023/02/05 08:18:59;;;;;;;13.03;11.83;;;0.90;99.90;;;1.62;100.00;99752.31;5223924;28;20205;-83
2023/02/05 08:21:32;;;;;;;11.67;10.67;;;0.90;99.90;;;1.57;100.00;99745.78;5224455;28;20550;-85
2023/02/05 08:24:06;;;;;;;11.50;10.40;;;0.90;99.90;;;1.59;100.00;99744.38;5217741;28;20224;-85
2023/02/05 08:26:41;;;;;;;11.13;10.03;;;0.90;99.90;;;1.53;100.00;99744.53;5219518;28;20229;-85
2023/02/05 08:29:14;;;;;;;11.47;10.47;;;0.90;99.90;;;1.61;100.00;99750.50;5220900;28;20219;-85
2023/02/05 08:31:47;;;;;;;9.87;8.97;;;1.00;99.90;;;1.57;100.00;99746.72;5219759;28;20205;-85
2023/02/05 08:34:20;;;;;;;9.07;8.37;;;1.00;99.90;;;1.66;100.00;99744.41;5223643;28;20314;-85
2023/02/05 08:36:53;;;;;;;8.90;8.20;;;1.00;99.90;;;1.74;100.00;99746.22;5220678;28;20672;-86
2023/02/05 08:39:26;;;;;;;7.97;7.37;;;1.10;99.90;;;1.80;100.00;99751.09;5220340;28;20204;-85
2023/02/05 08:42:01;;;;;;;9.53;8.73;;;1.10;99.90;;;1.81;100.00;99740.34;5216532;28;20221;-86
2023/02/05 08:44:34;;;;;;;8.93;8.13;;;1.10;99.90;;;1.89;100.00;99738.72;5219547;28;20199;-85
2023/02/05 08:47:07;;;;;;;9.13;8.43;;;1.20;99.90;;;1.91;100.00;99737.28;5222072;28;20240;-85
2023/02/05 08:49:40;;;;;;;9.40;8.60;;;1.20;99.90;;;1.92;100.00;99724.88;5216687;28;20207;-85
2023/02/05 08:52:13;;;;;;;8.80;8.00;;;1.20;99.90;;;1.96;100.00;99726.16;5213901;28;20262;-85
2023/02/05 08:54:48;;;;;;;9.60;8.83;;;1.20;99.90;;;1.99;100.00;99712.28;5219121;28;20201;-83
2023/02/05 08:57:22;;;;;;;9.00;8.20;;;1.30;99.90;;;2.07;100.00;99699.69;5219138;28;20246;-84
2023/02/05 08:59:56;;;;;;;9.50;8.70;;;1.30;99.90;;;2.01;100.00;99704.91;5220301;28;20268;-82
2023/02/05 09:02:29;;;;;;;10.17;9.20;;;1.30;99.90;;;2.01;100.00;99690.69;5211374;28;20238;-82
2023/02/05 09:05:04;;;;;;;11.60;10.57;;;1.30;99.90;;;1.90;100.00;99695.16;5213566;28;21492;-83
2023/02/05 09:07:42;;;;;;;11.83;10.63;;;1.20;99.90;;;1.97;100.00;99685.06;5213958;28;20226;-83
2023/02/05 09:10:15;;;;;;;11.07;9.93;;;1.30;99.90;;;2.07;100.00;99670.34;5216872;28;20312;-83
2023/02/05 09:12:49;;;;;;;10.67;9.67;;;1.40;99.90;;;2.18;100.00;99667.47;5216708;28;20233;-82
2023/02/05 09:15:22;;;;;;;10.23;9.43;;;1.40;99.90;;;2.16;100.00;99663.84;5221001;28;20209;-83
2023/02/05 09:17:55;;;;;;;10.83;9.83;;;1.40;99.90;;;2.24;100.00;99655.56;5221821;28;20198;-83
2023/02/05 09:20:28;;;;;;;10.60;9.67;;;1.50;99.90;;;2.28;100.00;99650.88;5221674;28;20585;-83
2023/02/05 09:23:01;;;;;;;11.83;10.90;;;1.50;99.90;;;2.22;100.00;99653.59;5219868;28;20235;-83
2023/02/05 09:25:35;;;;;;;13.33;12.03;;;1.50;99.90;;;2.28;100.00;99650.88;5221015;28;20587;-82
2023/02/05 09:28:12;;;;;;;14.13;12.77;;;1.60;99.90;;;2.31;100.00;99656.28;5220862;28;20224;-83
2023/02/05 09:30:46;;;;;;;11.60;10.50;;;1.60;99.90;;;2.39;100.00;99658.09;5220033;28;20209;-84
2023/02/05 09:33:19;;;;;;;10.90;9.80;;;1.70;99.90;;;2.47;100.00;99655.75;5217307;28;20311;-82
2023/02/05 09:35:53;;;;;;;10.03;9.13;;;1.80;99.90;;;2.53;100.00;99657.19;5221319;28;20209;-83
2023/02/05 09:38:26;;;;;;;9.13;8.43;;;1.80;99.90;;;2.58;100.00;99664.59;5222278;28;20253;-82
2023/02/05 09:41:05;;;;;;;9.27;8.47;;;1.90;99.90;;;2.67;100.00;99670.72;5224947;28;20204;-83
2023/02/05 09:43:50;;;;;;;11.43;10.43;;;1.90;99.90;;;2.70;100.00;99671.06;5224336;28;20221;-83
2023/02/05 09:46:36;;;;;;;12.83;11.60;;;2.00;99.90;;;2.79;100.00;99660.22;5229135;28;20239;-85
2023/02/05 09:49:17;;;;;;;12.33;11.23;;;2.00;99.90;;;2.82;100.00;99653.91;5224656;28;20680;-85
2023/02/05 09:51:56;;;;;;;11.93;10.93;;;2.10;99.90;;;2.89;100.00;99648.88;5228598;28;20300;-84
2023/02/05 09:54:35;;;;;;;11.17;10.17;;;2.10;99.90;;;2.89;100.00;99647.94;5227599;28;20196;-85
2023/02/05 09:57:13;;;;;;;10.37;9.40;;;2.10;99.90;;;2.92;100.00;99638.22;5229380;28;20235;-84
2023/02/05 09:59:47;;;;;;;9.50;8.63;;;2.10;99.90;;;2.78;100.00;99634.09;5232337;28;20288;-85
2023/02/05 10:02:27;;;;;;;9.27;8.50;;;2.00;99.90;;;2.77;100.00;99631.38;5229283;28;20224;-85
2023/02/05 10:05:01;;;;;;;10.93;10.03;;;2.00;99.90;;;2.76;100.00;99639.69;5229403;28;20274;-84
2023/02/05 10:07:41;;;;;;;9.90;9.00;;;2.00;99.90;;;2.75;100.00;99635.34;5226367;28;20231;-84
2023/02/05 10:10:27;;;;;;;9.67;8.77;;;2.00;99.90;;;2.66;100.00;99633.56;5231016;28;20287;-83
2023/02/05 10:13:27;;;;;;;10.00;9.10;;;2.00;99.90;;;2.67;100.00;99627.78;5223290;28;20224;-83
2023/02/05 10:16:37;;;;;;;11.63;10.60;;;2.10;99.90;;;2.73;100.00;99627.59;5223456;28;20288;-84
2023/02/05 10:19:34;;;;;;;13.03;11.93;;;2.10;99.90;;;2.79;100.00;99627.41;5227272;28;20673;-85
2023/02/05 10:22:17;;;;;;;13.17;11.83;;;2.20;99.90;;;2.79;100.00;99620.72;5225443;28;20244;-83
2023/02/05 10:25:18;;;;;;;12.30;11.00;;;2.10;99.90;;;2.79;100.00;99622.38;5226093;28;20272;-85
2023/02/05 10:28:05;;;;;;;12.50;11.40;;;2.20;99.90;;;2.78;100.00;99613.00;5225666;28;20239;-85
2023/02/05 10:30:50;;;;;;;12.60;11.40;;;2.20;99.90;;;2.83;100.00;99606.81;5221124;28;20365;-85
2023/02/05 10:33:44;;;;;;;12.53;11.43;;;2.30;99.90;;;2.88;100.00;99613.31;5229575;28;20225;-85
2023/02/05 10:36:21;;;;;;;14.83;13.27;;;2.30;99.90;;;2.93;100.00;99609.69;5223352;28;20208;-85
2023/02/05 10:38:58;;;;;;;15.20;13.70;;;2.30;99.90;;;2.97;100.00;99619.41;5226059;28;20205;-84
2023/02/05 10:41:37;;;;;;;16.23;14.67;;;2.40;99.90;;;2.95;100.00;99620.88;5220805;28;20597;-84
2023/02/05 10:44:17;;;;;;;16.90;15.10;;;2.30;99.90;;;2.90;100.00;99611.88;5217501;28;20305;-83
2023/02/05 10:46:54;;;;;;;15.53;14.00;;;2.30;99.90;;;2.88;100.00;99615.84;5223604;28;20228;-85
2023/02/05 10:49:43;;;;;;;15.17;13.70;;;2.20;99.90;;;2.83;100.00;99610.28;5223324;28;20574;-85
2023/02/05 10:52:17;;;;;;;16.37;14.77;;;2.20;99.90;;;2.76;100.00;99605.22;5222266;28;20595;-85
2023/02/05 10:54:50;;;;;;;16.13;14.53;;;2.20;99.90;;;2.72;100.00;99615.72;5222634;28;20256;-86